createdAt,value
2018-09-11T00:01:14.950Z,72.38
2018-09-11T00:03:43.713Z,72.50
2018-09-11T00:06:12.477Z,72.57
2018-09-11T00:08:41.235Z,73.05
2018-09-11T00:11:10.096Z,73.41
2018-09-11T00:13:38.868Z,71.38
2018-09-11T00:16:07.732Z,72.57
2018-09-11T00:18:36.692Z,72.11
2018-09-11T00:21:05.526Z,72.57
2018-09-11T00:23:34.346Z,71.53
2018-09-11T00:26:03.103Z,72.15
2018-09-11T00:28:31.844Z,72.18
2018-09-11T00:31:00.853Z,72.07
2018-09-11T00:33:29.765Z,72.30
2018-09-11T00:35:58.504Z,72.86
2018-09-11T00:38:27.335Z,73.33
2018-09-11T00:40:56.372Z,73.66
2018-09-11T00:43:25.132Z,73.61
2018-09-11T00:45:53.894Z,73.64
2018-09-11T00:48:22.640Z,74.29
2018-09-11T00:50:51.391Z,74.72
2018-09-11T00:53:20.345Z,75.13
2018-09-11T00:55:49.427Z,74.73
2018-09-11T00:58:18.164Z,74.67
2018-09-11T01:00:47.076Z,74.90
2018-09-11T01:03:15.857Z,73.24
2018-09-11T01:05:44.599Z,73.80
2018-09-11T01:08:13.348Z,73.41
2018-09-11T01:10:42.135Z,72.55
2018-09-11T01:13:10.871Z,73.05
2018-09-11T01:15:39.640Z,73.73
2018-09-11T01:18:08.390Z,73.73
2018-09-11T01:20:37.205Z,73.88
2018-09-11T01:23:06.184Z,73.84
2018-09-11T01:25:34.935Z,74.84
2018-09-11T01:28:03.708Z,75.72
2018-09-11T01:30:32.464Z,74.96
2018-09-11T01:33:01.239Z,75.33
2018-09-11T01:35:30.009Z,75.23
2018-09-11T01:37:58.797Z,73.87
2018-09-11T01:40:28.047Z,75.05
2018-09-11T01:42:56.928Z,76.14
2018-09-11T01:45:25.759Z,74.46
2018-09-11T01:47:54.506Z,75.14
2018-09-11T01:50:23.276Z,76.21
2018-09-11T01:52:52.054Z,75.18
2018-09-11T01:55:20.820Z,75.88
2018-09-11T01:57:49.585Z,75.94
2018-09-11T02:00:20.943Z,76.62
2018-09-11T02:02:49.879Z,75.65
2018-09-11T02:05:18.701Z,77.19
2018-09-11T02:07:47.496Z,76.87
2018-09-11T02:10:16.244Z,76.76
2018-09-11T02:12:44.987Z,78.53
2018-09-11T02:15:13.820Z,75.85
2018-09-11T02:17:42.670Z,78.44
2018-09-11T02:20:11.464Z,78.54
2018-09-11T02:22:40.254Z,77.62
2018-09-11T02:25:09.096Z,77.58
2018-09-11T02:27:37.851Z,78.06
2018-09-11T02:30:06.778Z,78.54
2018-09-11T02:32:35.827Z,77.64
2018-09-11T02:35:04.668Z,77.85
2018-09-11T02:37:33.403Z,78.66
2018-09-11T02:40:02.152Z,78.01
2018-09-11T02:42:30.907Z,80.50
2018-09-11T02:44:59.703Z,80.90
2018-09-11T02:47:28.641Z,80.21
2018-09-11T02:49:57.372Z,80.16
2018-09-11T02:52:26.175Z,79.38
2018-09-11T02:54:55.011Z,79.38
2018-09-11T02:57:23.916Z,79.47
2018-09-11T02:59:52.640Z,79.12
2018-09-11T03:02:21.400Z,78.81
2018-09-11T03:04:50.165Z,80.28
2018-09-11T03:07:19.908Z,79.38
2018-09-11T03:09:48.676Z,79.07
2018-09-11T03:12:17.444Z,79.58
2018-09-11T03:14:46.192Z,80.78
2018-09-11T03:17:15.035Z,80.60
2018-09-11T03:19:43.805Z,81.69
2018-09-11T03:22:12.634Z,81.59
2018-09-11T03:24:41.360Z,81.93
2018-09-11T03:27:10.127Z,80.22
2018-09-11T03:29:38.936Z,81.23
2018-09-11T03:32:07.846Z,80.70
2018-09-11T03:34:36.762Z,80.88
2018-09-11T03:37:05.547Z,81.50
2018-09-11T03:39:34.307Z,82.37
2018-09-11T03:42:03.040Z,82.93
2018-09-11T03:44:31.803Z,80.67
2018-09-11T03:47:00.571Z,80.97
2018-09-11T03:49:29.321Z,80.88
2018-09-11T03:51:58.076Z,81.07
2018-09-11T03:54:26.915Z,82.41
2018-09-11T03:56:55.794Z,81.49
2018-09-11T03:59:24.561Z,81.74
2018-09-11T04:01:53.332Z,82.24
2018-09-11T04:04:22.108Z,82.58
2018-09-11T04:06:50.830Z,81.56
2018-09-11T04:09:19.604Z,81.76
2018-09-11T04:11:48.359Z,82.16
2018-09-11T04:14:17.115Z,82.86
2018-09-11T04:16:46.005Z,83.67
2018-09-11T04:19:14.814Z,83.14
2018-09-11T04:21:43.626Z,83.39
2018-09-11T04:24:12.813Z,83.74
2018-09-11T04:26:41.787Z,83.31
2018-09-11T04:29:10.613Z,83.66
2018-09-11T04:31:39.448Z,84.24
2018-09-11T04:34:08.288Z,83.86
2018-09-11T04:36:37.040Z,84.48
2018-09-11T04:39:10.002Z,84.11
2018-09-11T04:41:38.765Z,83.29
2018-09-11T04:44:07.559Z,82.99
2018-09-11T04:46:36.561Z,84.07
2018-09-11T04:49:05.809Z,83.73
2018-09-11T04:51:34.571Z,83.03
2018-09-11T04:54:04.319Z,83.37
2018-09-11T04:56:33.187Z,84.63
2018-09-11T04:59:02.356Z,85.76
2018-09-11T05:01:31.289Z,85.63
2018-09-11T05:04:00.119Z,86.50
2018-09-11T05:06:29.250Z,85.05
2018-09-11T05:08:58.006Z,84.85
2018-09-11T05:11:27.630Z,85.71
2018-09-11T05:13:56.777Z,85.00
2018-09-11T05:16:26.194Z,83.69
2018-09-11T05:18:55.260Z,84.83
2018-09-11T05:21:24.064Z,84.36
2018-09-11T05:23:52.797Z,83.94
2018-09-11T05:26:21.576Z,84.17
2018-09-11T05:28:50.365Z,85.97
2018-09-11T05:31:19.127Z,85.91
2018-09-11T05:33:47.908Z,85.79
2018-09-11T05:36:16.790Z,85.64
2018-09-11T05:38:45.784Z,86.32
2018-09-11T05:41:14.536Z,86.43
2018-09-11T05:43:43.457Z,85.46
2018-09-11T05:46:12.287Z,85.22
2018-09-11T05:48:41.247Z,84.88
2018-09-11T05:51:10.280Z,84.20
2018-09-11T05:53:42.209Z,82.93
2018-09-11T05:56:10.941Z,81.11
2018-09-11T05:58:39.976Z,81.29
2018-09-11T06:01:08.763Z,79.69
2018-09-11T06:03:37.525Z,78.81
2018-09-11T06:06:06.309Z,77.85
2018-09-11T06:08:35.102Z,78.50
2018-09-11T06:11:03.848Z,78.45
2018-09-11T06:13:32.676Z,78.30
2018-09-11T06:16:07.951Z,78.20
2018-09-11T06:18:36.718Z,77.68
2018-09-11T06:21:05.596Z,77.59
2018-09-11T06:23:34.344Z,77.64
2018-09-11T06:26:03.164Z,76.26
2018-09-11T06:28:32.033Z,76.36
2018-09-11T06:31:00.792Z,76.19
2018-09-11T06:33:29.612Z,75.68
2018-09-11T06:35:58.489Z,74.69
2018-09-11T06:38:27.285Z,75.56
2018-09-11T06:40:56.040Z,73.64
2018-09-11T06:43:24.908Z,72.77
2018-09-11T06:45:53.682Z,72.17
2018-09-11T06:48:22.504Z,69.38
2018-09-11T06:50:51.266Z,66.27
2018-09-11T06:53:20.061Z,63.40
2018-09-11T06:55:48.832Z,63.24
2018-09-11T06:58:17.664Z,61.05
2018-09-11T07:00:46.455Z,57.69
2018-09-11T07:03:15.267Z,58.07
2018-09-11T07:05:44.068Z,57.69
2018-09-11T07:08:14.474Z,58.26
2018-09-11T07:10:43.229Z,59.31
2018-09-11T07:13:12.017Z,60.12
2018-09-11T07:15:40.779Z,57.96
2018-09-11T07:18:09.535Z,57.01
2018-09-11T07:20:38.324Z,56.05
2018-09-11T07:23:07.108Z,55.35
2018-09-11T07:25:35.922Z,57.05
2018-09-11T07:28:04.709Z,55.75
2018-09-11T07:30:33.585Z,57.33
2018-09-11T07:33:02.540Z,55.74
2018-09-11T07:35:31.306Z,55.49
2018-09-11T07:38:00.094Z,58.48
2018-09-11T07:40:28.873Z,57.91
2018-09-11T07:42:57.644Z,56.27
2018-09-11T07:45:26.453Z,56.34
2018-09-11T07:47:55.255Z,57.38
2018-09-11T07:50:24.024Z,56.71
2018-09-11T07:52:52.930Z,56.03
2018-09-11T07:55:21.708Z,55.45
2018-09-11T07:57:50.506Z,55.23
2018-09-11T08:00:19.352Z,55.24
2018-09-11T08:02:48.136Z,54.26
2018-09-11T08:05:16.967Z,54.80
2018-09-11T08:07:45.765Z,54.57
2018-09-11T08:10:14.523Z,55.66
2018-09-11T08:12:43.324Z,55.56
2018-09-11T08:15:12.164Z,57.04
2018-09-11T08:17:40.933Z,56.93
2018-09-11T08:20:10.589Z,57.96
2018-09-11T08:22:39.435Z,56.34
2018-09-11T08:25:08.612Z,56.72
2018-09-11T08:27:37.397Z,55.35
2018-09-11T08:30:06.597Z,55.63
2018-09-11T08:32:35.383Z,54.66
2018-09-11T08:35:04.247Z,55.75
2018-09-11T08:37:33.010Z,54.33
2018-09-11T08:40:02.003Z,54.92
2018-09-11T08:42:30.789Z,55.60
2018-09-11T08:44:59.552Z,53.61
2018-09-11T08:47:28.349Z,54.08
2018-09-11T08:49:57.178Z,53.96
2018-09-11T08:52:26.003Z,54.28
2018-09-11T08:54:54.725Z,55.24
2018-09-11T08:57:23.501Z,54.85
2018-09-11T08:59:52.392Z,52.96
2018-09-11T09:02:21.253Z,52.78
2018-09-11T09:04:50.036Z,53.53
2018-09-11T09:07:18.808Z,50.01
2018-09-11T09:09:47.734Z,50.55
2018-09-11T09:12:16.478Z,50.84
2018-09-11T09:14:45.344Z,51.30
2018-09-11T09:17:14.174Z,50.91
2018-09-11T09:19:42.976Z,52.00
2018-09-11T09:22:11.843Z,52.69
2018-09-11T09:24:40.617Z,51.35
2018-09-11T09:27:09.389Z,51.27
2018-09-11T09:29:38.170Z,50.45
2018-09-11T09:32:06.946Z,50.30
2018-09-11T09:34:35.712Z,49.90
2018-09-11T09:37:04.676Z,49.58
2018-09-11T09:39:33.412Z,49.03
2018-09-11T09:42:02.217Z,50.97
2018-09-11T09:44:30.977Z,50.50
2018-09-11T09:46:59.772Z,49.59
2018-09-11T09:49:28.524Z,49.36
2018-09-11T09:51:57.339Z,46.74
2018-09-11T09:54:26.113Z,48.46
2018-09-11T09:56:54.990Z,50.18
2018-09-11T09:59:23.885Z,52.11
2018-09-11T10:01:57.872Z,48.91
2018-09-11T10:04:26.646Z,49.03
2018-09-11T10:06:55.412Z,47.09
2018-09-11T10:09:24.170Z,48.95
2018-09-11T10:11:53.022Z,47.18
2018-09-11T10:14:21.831Z,48.36
2018-09-11T10:16:50.708Z,46.05
2018-09-11T10:19:19.486Z,45.22
2018-09-11T10:21:48.341Z,44.78
2018-09-11T10:24:17.120Z,45.65
2018-09-11T10:26:45.922Z,44.13
2018-09-11T10:29:14.702Z,46.74
2018-09-11T10:31:43.561Z,47.26
2018-09-11T10:34:12.372Z,45.96
2018-09-11T10:36:41.296Z,45.81
2018-09-11T10:39:10.328Z,44.85
2018-09-11T10:41:39.296Z,44.64
2018-09-11T10:44:08.066Z,45.88
2018-09-11T10:46:36.860Z,46.00
2018-09-11T10:49:05.680Z,46.57
2018-09-11T10:51:34.449Z,42.46
2018-09-11T10:54:03.221Z,42.75
2018-09-11T10:56:32.061Z,43.10
2018-09-11T10:59:00.805Z,43.15
2018-09-11T11:01:29.571Z,43.29
2018-09-11T11:03:58.587Z,44.74
2018-09-11T11:06:27.599Z,43.69
2018-09-11T11:08:56.364Z,42.38
2018-09-11T11:11:25.150Z,41.03
2018-09-11T11:13:53.945Z,39.90
2018-09-11T11:16:22.753Z,44.72
2018-09-11T11:18:51.528Z,43.19
2018-09-11T11:21:20.655Z,41.33
2018-09-11T11:23:49.433Z,42.03
2018-09-11T11:26:18.311Z,41.14
2018-09-11T11:28:47.112Z,40.32
2018-09-11T11:31:15.901Z,42.94
2018-09-11T11:33:44.755Z,41.68
2018-09-11T11:36:13.724Z,41.98
2018-09-11T11:38:42.692Z,40.33
2018-09-11T11:41:11.484Z,39.24
2018-09-11T11:43:40.256Z,41.04
2018-09-11T11:46:09.198Z,43.26
2018-09-11T11:48:38.063Z,39.36
2018-09-11T11:51:06.998Z,40.50
2018-09-11T11:53:35.879Z,40.16
2018-09-11T11:56:04.647Z,38.63
2018-09-11T11:58:33.458Z,40.36
2018-09-11T12:01:02.244Z,39.04
2018-09-11T12:03:31.034Z,40.85
2018-09-11T12:06:00.288Z,38.00
2018-09-11T12:08:29.401Z,38.56
2018-09-11T12:10:58.212Z,39.11
2018-09-11T12:13:26.988Z,39.81
2018-09-11T12:15:55.776Z,38.25
2018-09-11T12:18:24.536Z,36.74
2018-09-11T12:20:53.398Z,37.59
2018-09-11T12:23:22.248Z,37.94
2018-09-11T12:25:51.026Z,37.42
2018-09-11T12:28:19.812Z,36.34
2018-09-11T12:30:48.624Z,37.38
2018-09-11T12:33:17.530Z,37.13
2018-09-11T12:35:46.298Z,34.87
2018-09-11T12:38:15.118Z,34.80
2018-09-11T12:40:43.893Z,36.52
2018-09-11T12:43:12.802Z,36.54
2018-09-11T12:45:41.672Z,37.74
2018-09-11T12:48:11.051Z,36.83
2018-09-11T12:50:39.495Z,36.30
2018-09-11T12:53:08.268Z,37.81
2018-09-11T12:55:37.042Z,36.83
2018-09-11T12:58:05.822Z,37.11
2018-09-11T13:00:34.646Z,37.21
2018-09-11T13:03:03.508Z,36.16
2018-09-11T13:05:32.296Z,36.01
2018-09-11T13:08:01.080Z,35.13
2018-09-11T13:10:29.868Z,35.20
2018-09-11T13:12:58.658Z,38.30
2018-09-11T13:15:27.530Z,36.17
2018-09-11T13:17:56.353Z,37.06
2018-09-11T13:20:25.149Z,35.12
2018-09-11T13:22:53.914Z,33.52
2018-09-11T13:25:22.693Z,35.57
2018-09-11T13:27:51.477Z,36.24
2018-09-11T13:30:20.251Z,34.59
2018-09-11T13:32:49.061Z,34.52
2018-09-11T13:35:17.843Z,36.40
2018-09-11T13:37:46.730Z,37.05
2018-09-11T13:40:15.497Z,36.21
2018-09-11T13:42:44.264Z,35.03
2018-09-11T13:45:13.035Z,34.75
2018-09-11T13:47:41.926Z,35.81
2018-09-11T13:50:10.727Z,37.79
2018-09-11T13:52:39.783Z,36.94
2018-09-11T13:55:08.576Z,36.74
2018-09-11T13:57:37.433Z,36.41
2018-09-11T14:00:06.647Z,36.59
2018-09-11T14:02:35.500Z,36.27
2018-09-11T14:05:04.282Z,36.79
2018-09-11T14:07:33.120Z,34.38
2018-09-11T14:10:01.903Z,35.75
2018-09-11T14:12:30.687Z,37.33
2018-09-11T14:14:59.469Z,38.22
2018-09-11T14:17:28.227Z,36.25
2018-09-11T14:19:57.178Z,35.75
2018-09-11T14:22:26.039Z,36.18
2018-09-11T14:24:54.806Z,37.25
2018-09-11T14:27:23.601Z,38.63
2018-09-11T14:29:52.414Z,38.46
2018-09-11T14:32:21.164Z,37.36
2018-09-11T14:34:50.005Z,37.18
2018-09-11T14:37:18.858Z,37.54
2018-09-11T14:39:47.638Z,35.91
2018-09-11T14:42:16.421Z,36.54
2018-09-11T14:44:45.243Z,36.56
2018-09-11T14:47:14.061Z,36.16
2018-09-11T14:49:42.824Z,36.49
2018-09-11T14:52:11.583Z,35.83
2018-09-11T14:54:40.420Z,35.61
2018-09-11T14:57:09.211Z,34.86
2018-09-11T14:59:37.972Z,35.75
2018-09-11T15:02:06.764Z,36.32
2018-09-11T15:04:35.590Z,33.74
2018-09-11T15:07:04.706Z,33.84
2018-09-11T15:09:33.472Z,34.32
2018-09-11T15:12:02.238Z,33.09
2018-09-11T15:14:31.098Z,34.90
2018-09-11T15:16:59.949Z,34.99
2018-09-11T15:19:28.767Z,35.18
2018-09-11T15:21:57.576Z,35.20
2018-09-11T15:24:26.444Z,32.97
2018-09-11T15:26:55.281Z,33.46
2018-09-11T15:29:24.056Z,34.33
2018-09-11T15:31:52.873Z,32.56
2018-09-11T15:34:21.666Z,32.94
2018-09-11T15:36:50.881Z,33.63
2018-09-11T15:39:19.702Z,34.92
2018-09-11T15:41:48.517Z,34.24
2018-09-11T15:44:17.307Z,35.14
2018-09-11T15:46:46.079Z,34.31
2018-09-11T15:49:15.074Z,33.96
2018-09-11T15:51:43.993Z,34.18
2018-09-11T15:54:12.774Z,33.87
2018-09-11T15:56:41.546Z,32.03
2018-09-11T15:59:10.324Z,34.81
2018-09-11T16:01:39.116Z,32.76
2018-09-11T16:04:07.880Z,32.73
2018-09-11T16:06:36.724Z,33.35
2018-09-11T16:09:08.409Z,32.49
2018-09-11T16:11:37.251Z,33.54
2018-09-11T16:14:06.265Z,33.04
2018-09-11T16:16:35.242Z,33.15
2018-09-11T16:19:04.049Z,34.78
2018-09-11T16:21:33.130Z,33.27
2018-09-11T16:24:02.603Z,33.98
2018-09-11T16:26:32.295Z,33.82
2018-09-11T16:29:01.430Z,34.46
2018-09-11T16:31:31.941Z,34.33
2018-09-11T16:34:00.820Z,34.69
2018-09-11T16:36:29.648Z,36.14
2018-09-11T16:38:58.429Z,35.31
2018-09-11T16:41:27.417Z,34.50
2018-09-11T16:43:56.264Z,35.19
2018-09-11T16:46:25.328Z,34.33
2018-09-11T16:48:54.106Z,35.91
2018-09-11T16:51:22.992Z,35.20
2018-09-11T16:53:51.759Z,35.20
2018-09-11T16:56:20.546Z,36.22
2018-09-11T16:58:49.338Z,36.13
2018-09-11T17:01:18.210Z,36.11
2018-09-11T17:03:47.009Z,36.72
2018-09-11T17:06:15.814Z,37.39
2018-09-11T17:08:44.933Z,37.55
2018-09-11T17:11:13.910Z,37.56
2018-09-11T17:13:42.767Z,39.49
2018-09-11T17:16:11.580Z,40.26
2018-09-11T17:18:46.617Z,40.31
2018-09-11T17:21:15.400Z,42.22
2018-09-11T17:23:44.192Z,43.94
2018-09-11T17:26:13.035Z,43.69
2018-09-11T17:28:42.320Z,44.24
2018-09-11T17:31:11.177Z,43.74
2018-09-11T17:33:40.130Z,43.99
2018-09-11T17:36:09.339Z,44.79
2018-09-11T17:38:38.735Z,47.11
2018-09-11T17:41:08.173Z,47.34
2018-09-11T17:43:37.028Z,48.68
2018-09-11T17:46:05.812Z,48.57
2018-09-11T17:48:34.691Z,49.25
2018-09-11T17:51:03.600Z,50.42
2018-09-11T17:53:32.440Z,51.23
2018-09-11T17:56:01.341Z,52.20
2018-09-11T17:58:30.159Z,52.29
2018-09-11T18:00:59.082Z,52.73
2018-09-11T18:03:28.116Z,53.31
2018-09-11T18:05:56.884Z,52.29
2018-09-11T18:08:25.750Z,53.61
2018-09-11T18:10:54.590Z,54.97
2018-09-11T18:13:23.476Z,55.21
2018-09-11T18:15:52.530Z,55.05
2018-09-11T18:18:21.698Z,56.16
2018-09-11T18:20:50.573Z,55.63
2018-09-11T18:23:19.442Z,55.77
2018-09-11T18:25:48.385Z,56.03
2018-09-11T18:28:17.167Z,54.38
2018-09-11T18:30:45.964Z,52.68
2018-09-11T18:33:14.813Z,53.19
2018-09-11T18:35:43.777Z,54.25
2018-09-11T18:38:12.646Z,53.89
2018-09-11T18:40:41.516Z,54.02
2018-09-11T18:43:11.110Z,55.37
2018-09-11T18:45:39.914Z,54.33
2018-09-11T18:48:08.814Z,54.00
2018-09-11T18:50:37.680Z,53.66
2018-09-11T18:53:06.480Z,56.04
2018-09-11T18:55:35.380Z,55.25
2018-09-11T18:58:04.349Z,53.64
2018-09-11T19:00:33.247Z,55.86
2018-09-11T19:03:03.068Z,54.55
2018-09-11T19:05:32.105Z,54.14
2018-09-11T19:08:01.280Z,54.63
2018-09-11T19:10:30.417Z,55.13
2018-09-11T19:12:59.331Z,55.68
2018-09-11T19:15:28.168Z,57.06
2018-09-11T19:17:56.933Z,56.06
2018-09-11T19:20:25.751Z,56.35
2018-09-11T19:22:54.708Z,58.15
2018-09-11T19:25:23.586Z,59.16
2018-09-11T19:27:52.364Z,58.80
2018-09-11T19:30:21.841Z,59.15
2018-09-11T19:32:50.692Z,58.51
2018-09-11T19:35:19.477Z,58.07
2018-09-11T19:37:49.090Z,60.56
2018-09-11T19:40:18.111Z,59.77
2018-09-11T19:42:47.013Z,60.36
2018-09-11T19:45:16.065Z,60.57
2018-09-11T19:47:45.761Z,61.24
2018-09-11T19:50:14.809Z,63.21
2018-09-11T19:52:43.609Z,62.46
2018-09-11T19:55:13.271Z,62.13
2018-09-11T19:57:42.471Z,62.59
2018-09-11T20:00:11.484Z,64.06
2018-09-11T20:02:40.282Z,64.89
2018-09-11T20:05:09.196Z,65.35
2018-09-11T20:07:38.029Z,64.65
2018-09-11T20:10:07.282Z,65.65
2018-09-11T20:12:36.137Z,65.29
2018-09-11T20:15:05.323Z,64.88
2018-09-11T20:17:34.164Z,66.53
2018-09-11T20:20:03.009Z,65.38
2018-09-11T20:22:32.053Z,65.79
2018-09-11T20:25:01.012Z,66.64
2018-09-11T20:27:29.771Z,65.92
2018-09-11T20:29:58.554Z,66.65
2018-09-11T20:32:27.333Z,64.46
2018-09-11T20:34:56.167Z,66.31
2018-09-11T20:37:24.989Z,66.71
2018-09-11T20:39:53.825Z,67.53
2018-09-11T20:42:22.596Z,66.55
2018-09-11T20:44:51.395Z,67.24
2018-09-11T20:47:20.127Z,67.96
2018-09-11T20:49:49.157Z,66.54
2018-09-11T20:52:18.131Z,66.13
2018-09-11T20:54:46.968Z,67.64
2018-09-11T20:58:18.904Z,67.66
2018-09-11T21:00:47.777Z,68.95
2018-09-11T21:03:16.621Z,69.25
2018-09-11T21:05:45.840Z,65.89
2018-09-11T21:08:14.599Z,66.45
2018-09-11T21:10:43.351Z,67.02
2018-09-11T21:13:12.093Z,66.79
2018-09-11T21:15:40.897Z,67.60
2018-09-11T21:18:09.841Z,67.72
2018-09-11T21:20:38.813Z,68.58
2018-09-11T21:23:07.684Z,69.40
2018-09-11T21:25:36.469Z,67.87
2018-09-11T21:28:05.508Z,68.60
2018-09-11T21:30:34.328Z,66.14
2018-09-11T21:33:03.104Z,67.37
2018-09-11T21:35:31.891Z,69.03
2018-09-11T21:38:00.640Z,69.88
2018-09-11T21:40:30.032Z,69.18
2018-09-11T21:42:58.909Z,69.51
2018-09-11T21:45:27.661Z,69.42
2018-09-11T21:47:56.480Z,70.56
2018-09-11T21:50:25.265Z,69.11
2018-09-11T21:52:54.125Z,68.45
2018-09-11T21:55:22.931Z,68.72
2018-09-11T21:57:51.688Z,69.43
2018-09-11T22:00:20.520Z,70.49
2018-09-11T22:02:49.279Z,69.74
2018-09-11T22:05:18.119Z,68.66
2018-09-11T22:07:46.949Z,70.46
2018-09-11T22:10:15.752Z,69.84
2018-09-11T22:12:44.512Z,71.85
2018-09-11T22:15:13.376Z,72.87
2018-09-11T22:17:42.264Z,71.46
2018-09-11T22:20:11.072Z,71.12
2018-09-11T22:22:39.814Z,72.49
2018-09-11T22:25:08.564Z,72.86
2018-09-11T22:27:37.305Z,70.75
2018-09-11T22:30:06.223Z,70.94
2018-09-11T22:32:36.269Z,70.73
2018-09-11T22:35:05.118Z,71.19
2018-09-11T22:37:33.887Z,71.12
2018-09-11T22:40:02.748Z,73.00
2018-09-11T22:42:31.493Z,73.13
2018-09-11T22:45:00.340Z,70.91
2018-09-11T22:47:29.152Z,71.23
2018-09-11T22:49:57.893Z,71.63
2018-09-11T22:52:26.776Z,71.62
2018-09-11T22:54:55.530Z,71.33
2018-09-11T22:57:25.017Z,71.39
2018-09-11T22:59:53.852Z,71.07
2018-09-11T23:02:22.584Z,71.08
2018-09-11T23:04:51.385Z,71.46
2018-09-11T23:07:20.253Z,71.73
2018-09-11T23:09:49.037Z,70.89
2018-09-11T23:12:19.142Z,71.37
2018-09-11T23:14:47.936Z,71.64
2018-09-11T23:17:17.568Z,72.15
2018-09-11T23:19:46.343Z,72.10
2018-09-11T23:22:15.100Z,72.92
2018-09-11T23:24:43.848Z,71.77
2018-09-11T23:27:15.325Z,71.29
2018-09-11T23:29:44.194Z,71.95
2018-09-11T23:32:13.069Z,71.70
2018-09-11T23:34:41.794Z,71.46
2018-09-11T23:37:10.600Z,73.69
2018-09-11T23:39:41.244Z,72.96
2018-09-11T23:42:10.013Z,73.61
2018-09-11T23:44:38.894Z,73.81
2018-09-11T23:47:07.716Z,72.61
2018-09-11T23:49:36.473Z,72.89
2018-09-11T23:52:05.567Z,74.55
2018-09-11T23:54:34.295Z,74.28
2018-09-11T23:57:05.427Z,73.48
2018-09-11T23:59:35.929Z,73.20
